Coupland, TX (78615)

7:39 PM CDT on June 28, 2017 (GMT -0500)
Coupland Fire Dept (ESD#10) | | Change Station

Elev 525 ft 30.46 °N, 97.39 °W | Updated 1 minute ago

Clear
Clear
87.8 °F
Feels Like 119 °F
N
5.3
Wind Variable Wind from ENE

Today
High -- | Low -- °F
--% Chance of Precip.
Yesterday
High -- | Low -- °F
Precip. -- in
Pressure 29.85 in
Visibility 10.0 miles
Clouds Few 5000 ft
Heat Index 119 °F
Dew Point 88 °F
Humidity 99%
Rainfall 0.00 in
Snow Depth Not available.
6:29 AM 8:35 PM
Waxing Crescent, 30% visible
METAR KGTU 282250Z 10005KT 10SM FEW050 32/19 A2985
Pressure 29.85 in
Visibility 10.0 miles
Clouds Few 5000 ft
Heat Index 119 °F
Dew Point 88 °F
Humidity 99%
Rainfall 0.00 in
Snow Depth Not available.
6:29 AM 8:35 PM
Waxing Crescent, 30% visible
METAR KGTU 282250Z 10005KT 10SM FEW050 32/19 A2985

Get Severe Weather Alerts

Thanks for signing up!

Be on the lookout for a verification email in your inbox.

You'll start receiving the daily forecast at 6 AM.

×

10-Day Weather Forecast

Almanac

Astronomy

Jun. 28, 2017 Rise Set
Actual Time
Civil Twilight
Nautical Twilight
Astronomical Twilight
Moon
Length of Visible Light
Length of Day
Tomorrow will be .
, % of the Moon is Illuminated

Today's Extremes

State Highs State Lows

Community

WunderPhotos

Category 6

Welcome to Category 6. This is the collective home for Weather Underground's featured writeups by Dr. Jeff Masters (right), Bob Henson (left), Chris Burt, and other regular contributors.

Nearby

Air Quality

  Air Quality AQ Index Pollutant
Not available.

Snow Depth

Station Depth Elevation

Earthquake Activity

City Distance Mag. Time & Date
Minimum magnitude displayed is 2.5.

Coastal Water Temperatures

Place Temperature

Stations

Nearby Weather Stations

Station Location Temp. Windchill Dew Point Humidity Wind Precip. Elev Updated Type
                   

Watches & Warnings

There are currently no watches in effect.